METAR ET TAF INFORMATION
METAR FOR BIKF
ADDS - METARS form results

(1515 UTC 20 May 2019)
Data provider http://aviationweather.gov/metar/data/
 
METAR text: BIKF 201500Z 05006KT 9999 -SHRA FEW015 SCT035 BKN044 08/07 Q1014
Conditions at: BIKF (KEFLAVIK (CIV/MI, IS) observed 1500 UTC 20 May 2019
Temperature: 8.0°C (46°F)
Dewpoint: 7.0°C (45°F) [RH = 93%]
Pressure (altimeter): 29.94 inches Hg (1014.0 mb)
Winds: from the NE (50 degrees) at 7 MPH (6 knots; 3.1 m/s)
Visibility: 6 or more miles (10+ km)
Ceiling: 4400 feet AGL
Clouds: few clouds at 1500 feet AGL
scattered clouds at 3500 feet AGL
broken clouds at 4400 feet AGL
Weather: -SHRA  (light rain showers)

METAR text: BIKF 201430Z 06007KT 9999 -SHRA FEW015 SCT026 BKN042 08/07 Q1014
Conditions at: BIKF (KEFLAVIK (CIV/MI, IS) observed 1430 UTC 20 May 2019
Temperature: 8.0°C (46°F)
Dewpoint: 7.0°C (45°F) [RH = 93%]
Pressure (altimeter): 29.94 inches Hg (1014.0 mb)
Winds: from the ENE (60 degrees) at 8 MPH (7 knots; 3.6 m/s)
Visibility: 6 or more miles (10+ km)
Ceiling: 4200 feet AGL
Clouds: few clouds at 1500 feet AGL
scattered clouds at 2600 feet AGL
broken clouds at 4200 feet AGL
Weather: -SHRA  (light rain showers)

Forecast for: BIKF (KEFLAVIK (CIV/MI, IS)
Text: TAF BIKF 201333Z 2015/2115 35007KT 9999 -SHRA FEW015 SCT025 BKN040 TX11/2112Z TN06/2106Z
Forecast period: 1500 UTC 20 May 2019 to 1500 UTC 21 May 2019
Forecast type: FROM: standard forecast or significant change
Winds: from the N (350 degrees) at 8 MPH (7 knots; 3.6 m/s)
Visibility: 6 or more miles 10+ km)
Ceiling: 4000 feet AGL
Clouds: few clouds at 1500 feet AGL
scattered clouds at 2500 feet AGL
broken clouds at 4000 feet AGL
Weather: -SHRA  (light rain showers)

 AÉROPORT DE AÉROPORT

 INFORMATIONS DE PISTE
Piste 02 Longueur de la piste 10019 ft Largeur de la piste 197 ft
Élévation de la piste 137 ft Seuil de la piste déplacés 19 ft Runway heading 360
Piste 20 Longueur de la piste 10019 ft Largeur de la piste 197 ft
Élévation de la piste 163 ft Seuil de la piste déplacés 19 ft Runway heading 180
Piste 11 Longueur de la piste 10056 ft Largeur de la piste 197 ft
Élévation de la piste 111 ft Seuil de la piste déplacés 43 ft Runway heading 90
Piste 29 Longueur de la piste 10056 ft Largeur de la piste 197 ft
Élévation de la piste 171 ft Seuil de la piste déplacés 43 ft Runway heading 270

 AÉROPORT FRÉQUENCES
Type A/G Nom AIR GND Féquence 131.9 MHZ
Type APP Nom APP Féquence 119.3 MHZ
Type ATIS Nom ATIS Féquence 128.3 MHZ
Type DEP Nom DEP Féquence 119.3 MHZ
Type GND Nom GND Féquence 121.9 MHZ
Type OPS Nom BASE OPS Féquence 129 MHZ
Type PMSV Nom PMSV METR Féquence 125 MHZ
Type TWR Nom TWR Féquence 118.3 MHZ

 SIDA DE NAVIGATION
Type VORTAC Nom Keflavik Féquence 112000 KHZ
Type NDB Nom Keflavik Féquence 392 KHZ
Type NDB Nom Oscar Kilo Féquence 364 KHZ



Powered by Virtual Airlines Manager [v2.6.2]